createdAt,value
2022-12-06T00:00:40.302Z,24.70
2022-12-06T00:01:40.559Z,26.30
2022-12-06T00:02:41.130Z,24.40
2022-12-06T00:03:40.802Z,25.50
2022-12-06T00:04:40.313Z,27.80
2022-12-06T00:05:45.933Z,27.30
2022-12-06T00:06:41.265Z,25.40
2022-12-06T00:07:41.200Z,24.50
2022-12-06T00:08:40.262Z,24.70
2022-12-06T00:09:41.758Z,26.00
2022-12-06T00:10:41.131Z,23.10
2022-12-06T00:11:40.501Z,24.40
2022-12-06T00:12:40.297Z,24.10
2022-12-06T00:13:41.096Z,23.30
2022-12-06T00:14:40.298Z,25.00
2022-12-06T00:15:41.156Z,24.50
2022-12-06T00:16:41.114Z,24.30
2022-12-06T00:17:43.193Z,21.10
2022-12-06T00:18:40.186Z,25.20
2022-12-06T00:19:40.246Z,23.60
2022-12-06T00:20:40.176Z,23.90
2022-12-06T00:21:40.194Z,24.90
2022-12-06T00:22:40.201Z,23.80
2022-12-06T00:23:41.656Z,22.80
2022-12-06T00:24:40.177Z,24.90
2022-12-06T00:25:40.146Z,23.60
2022-12-06T00:26:40.396Z,23.20
2022-12-06T00:27:40.201Z,22.90
2022-12-06T00:28:40.124Z,24.20
2022-12-06T00:29:40.413Z,24.20
2022-12-06T00:30:40.111Z,26.40
2022-12-06T00:33:06.066Z,22.00
2022-12-06T00:34:06.064Z,24.20
2022-12-06T00:35:06.245Z,20.80
2022-12-06T00:36:06.053Z,24.20
2022-12-06T00:37:06.064Z,23.40
2022-12-06T00:38:06.043Z,23.30
2022-12-06T00:39:06.063Z,22.10
2022-12-06T00:40:06.056Z,23.30
2022-12-06T00:41:06.771Z,24.50
2022-12-06T00:42:06.793Z,22.90
2022-12-06T00:43:06.001Z,22.60
2022-12-06T00:44:06.008Z,22.80
2022-12-06T00:45:06.225Z,26.10
2022-12-06T00:46:06.035Z,24.00
2022-12-06T00:47:06.852Z,22.50
2022-12-06T00:48:05.980Z,27.30
2022-12-06T00:49:06.873Z,25.80
2022-12-06T00:50:06.377Z,23.90
2022-12-06T00:51:06.907Z,24.80
2022-12-06T00:52:06.891Z,22.50
2022-12-06T00:53:06.797Z,22.40
2022-12-06T00:54:05.988Z,25.90
2022-12-06T00:55:05.998Z,24.10
2022-12-06T00:56:06.065Z,23.50
2022-12-06T00:57:06.007Z,25.10
2022-12-06T00:58:06.017Z,26.80
2022-12-06T00:59:06.091Z,26.00
2022-12-06T01:00:05.936Z,26.90
2022-12-06T01:01:05.888Z,24.80
2022-12-06T01:02:05.905Z,24.60
2022-12-06T01:03:06.312Z,24.80
2022-12-06T01:04:05.886Z,26.50
2022-12-06T01:05:06.074Z,29.00
2022-12-06T01:06:06.345Z,26.80
2022-12-06T01:07:06.485Z,26.30
2022-12-06T01:08:06.003Z,28.10
2022-12-06T01:09:06.134Z,30.00
2022-12-06T01:10:06.616Z,29.60
2022-12-06T01:11:06.174Z,28.10
2022-12-06T01:12:05.942Z,28.20
2022-12-06T01:13:05.963Z,29.50
2022-12-06T01:14:06.743Z,30.80
2022-12-06T01:15:05.921Z,31.00
2022-12-06T01:16:06.638Z,33.10
2022-12-06T01:17:05.892Z,31.70
2022-12-06T01:18:05.831Z,34.00
2022-12-06T01:19:05.788Z,29.00
2022-12-06T01:20:05.791Z,34.20
2022-12-06T01:21:05.816Z,31.80
2022-12-06T01:22:06.180Z,31.20
2022-12-06T01:23:05.798Z,36.90
2022-12-06T01:24:05.778Z,33.50
2022-12-06T01:25:06.413Z,36.30
2022-12-06T01:26:06.162Z,39.30
2022-12-06T01:27:05.792Z,39.20
2022-12-06T01:28:06.676Z,41.10
2022-12-06T01:29:06.670Z,40.50
2022-12-06T01:30:05.888Z,39.00
2022-12-06T01:31:06.770Z,43.80
2022-12-06T01:32:06.637Z,42.10
2022-12-06T01:33:06.547Z,46.20
2022-12-06T01:34:05.696Z,45.00
2022-12-06T01:35:05.686Z,52.30
2022-12-06T01:36:05.702Z,49.20
2022-12-06T01:37:05.684Z,48.20
2022-12-06T01:38:06.310Z,51.90
2022-12-06T01:39:05.655Z,54.80
2022-12-06T01:40:05.645Z,56.00
2022-12-06T01:41:05.674Z,56.50
2022-12-06T01:42:05.642Z,57.20
2022-12-06T01:43:05.635Z,61.80
2022-12-06T01:44:05.713Z,67.50
2022-12-06T01:45:05.632Z,69.50
2022-12-06T01:46:05.642Z,69.70
2022-12-06T01:47:05.602Z,76.00
2022-12-06T01:48:05.593Z,74.30
2022-12-06T01:49:05.592Z,71.20
2022-12-06T01:50:05.751Z,75.20
2022-12-06T01:51:05.760Z,78.50
2022-12-06T01:52:05.572Z,72.20
2022-12-06T01:53:05.571Z,87.90
2022-12-06T01:54:05.779Z,88.70
2022-12-06T01:55:05.811Z,87.60
2022-12-06T01:56:05.572Z,82.20
2022-12-06T01:57:05.809Z,102.30
2022-12-06T01:58:05.558Z,87.20
2022-12-06T01:59:05.580Z,100.30
2022-12-06T02:00:05.889Z,93.40
2022-12-06T02:01:05.644Z,90.50
2022-12-06T02:02:05.553Z,94.50
2022-12-06T02:03:05.578Z,111.00
2022-12-06T02:04:06.919Z,110.20
2022-12-06T02:05:05.497Z,110.10
2022-12-06T02:06:05.498Z,127.60
2022-12-06T02:07:05.489Z,115.30
2022-12-06T02:08:06.023Z,119.10
2022-12-06T02:09:05.475Z,106.90
2022-12-06T02:10:05.904Z,125.90
2022-12-06T02:11:05.900Z,105.10
2022-12-06T02:12:06.105Z,110.50
2022-12-06T02:13:06.118Z,123.40
2022-12-06T02:14:05.506Z,127.90
2022-12-06T02:15:05.453Z,128.10
2022-12-06T02:16:05.522Z,135.00
2022-12-06T02:17:05.577Z,114.70
2022-12-06T02:18:05.413Z,156.10
2022-12-06T02:19:05.412Z,119.40
2022-12-06T02:20:05.404Z,141.30
2022-12-06T02:21:05.462Z,142.60
2022-12-06T02:22:05.392Z,119.80
2022-12-06T02:23:05.778Z,142.20
2022-12-06T02:24:05.780Z,154.00
2022-12-06T02:25:05.382Z,138.90
2022-12-06T02:26:05.389Z,111.60
2022-12-06T02:27:05.390Z,146.00
2022-12-06T02:28:06.010Z,132.50
2022-12-06T02:29:05.622Z,150.80
2022-12-06T02:30:05.659Z,148.10
2022-12-06T02:31:05.425Z,159.90
2022-12-06T02:32:06.317Z,166.60
2022-12-06T02:33:05.675Z,136.10
2022-12-06T02:34:06.300Z,139.60
2022-12-06T02:35:06.233Z,147.00
2022-12-06T02:36:06.315Z,173.90
2022-12-06T02:37:06.297Z,163.40
2022-12-06T02:38:10.048Z,150.70
2022-12-06T02:39:05.286Z,163.70
2022-12-06T02:40:06.260Z,175.30
2022-12-06T02:41:05.485Z,155.70
2022-12-06T02:42:06.339Z,164.70
2022-12-06T02:43:05.285Z,160.50
2022-12-06T02:44:06.124Z,176.70
2022-12-06T02:45:05.262Z,172.10
2022-12-06T02:46:05.316Z,170.80
2022-12-06T02:47:06.092Z,187.40
2022-12-06T02:48:06.256Z,175.50
2022-12-06T02:49:05.498Z,160.50
2022-12-06T02:50:05.383Z,140.70
2022-12-06T02:51:05.482Z,136.90
2022-12-06T02:52:05.446Z,149.50
2022-12-06T02:53:06.029Z,141.00
2022-12-06T02:54:05.230Z,140.80
2022-12-06T02:55:05.209Z,140.80
2022-12-06T02:56:05.208Z,140.20
2022-12-06T02:57:05.399Z,122.10
2022-12-06T02:58:05.363Z,127.80
2022-12-06T02:59:05.419Z,140.00
2022-12-06T03:00:05.241Z,117.80
2022-12-06T03:01:05.231Z,131.80
2022-12-06T03:02:05.235Z,128.20
2022-12-06T03:03:05.218Z,125.50
2022-12-06T03:04:05.179Z,108.20
2022-12-06T03:05:05.129Z,113.10
2022-12-06T03:06:05.118Z,107.70
2022-12-06T03:07:05.674Z,114.30
2022-12-06T03:08:05.787Z,118.80
2022-12-06T03:09:05.096Z,113.00
2022-12-06T03:10:05.088Z,105.90
2022-12-06T03:11:05.917Z,107.80
2022-12-06T03:12:05.926Z,117.70
2022-12-06T03:13:05.945Z,108.80
2022-12-06T03:14:06.055Z,101.70
2022-12-06T03:15:05.177Z,94.80
2022-12-06T03:16:05.131Z,102.60
2022-12-06T03:17:05.067Z,107.60
2022-12-06T03:18:05.045Z,93.60
2022-12-06T03:19:06.093Z,91.50
2022-12-06T03:20:05.996Z,94.00
2022-12-06T03:21:05.054Z,101.30
2022-12-06T03:22:06.374Z,102.50
2022-12-06T03:23:05.012Z,98.80
2022-12-06T03:24:05.013Z,96.40
2022-12-06T03:25:05.003Z,103.30
2022-12-06T03:26:04.990Z,90.90
2022-12-06T03:27:05.002Z,98.00
2022-12-06T03:28:04.988Z,94.50
2022-12-06T03:29:04.984Z,97.40
2022-12-06T03:30:04.980Z,105.60
2022-12-06T03:31:05.012Z,89.30
2022-12-06T03:32:04.980Z,97.20
2022-12-06T03:33:05.537Z,89.00
2022-12-06T03:34:05.470Z,100.40
2022-12-06T03:35:04.952Z,104.90
2022-12-06T03:36:05.052Z,95.10
2022-12-06T03:37:04.948Z,94.90
2022-12-06T03:38:04.956Z,96.20
2022-12-06T03:39:04.979Z,94.20
2022-12-06T03:40:04.909Z,101.20
2022-12-06T03:41:04.910Z,93.60
2022-12-06T03:42:04.907Z,105.60
2022-12-06T03:43:05.297Z,104.30
2022-12-06T03:44:04.879Z,97.10
2022-12-06T03:45:04.894Z,106.40
2022-12-06T03:46:04.973Z,98.40
2022-12-06T03:47:04.980Z,94.90
2022-12-06T03:48:04.884Z,92.20
2022-12-06T03:49:04.846Z,94.80
2022-12-06T03:50:04.885Z,103.30
2022-12-06T03:51:05.557Z,100.30
2022-12-06T03:52:04.844Z,90.60
2022-12-06T03:53:04.824Z,96.50
2022-12-06T03:54:04.814Z,94.30
2022-12-06T03:55:04.973Z,95.60
2022-12-06T03:56:04.806Z,92.90
2022-12-06T03:57:04.815Z,95.10
2022-12-06T03:58:04.922Z,101.10
2022-12-06T03:59:04.792Z,88.50
2022-12-06T04:00:04.833Z,86.90
2022-12-06T04:01:04.852Z,82.00
2022-12-06T04:02:04.851Z,87.00
2022-12-06T04:03:04.822Z,91.20
2022-12-06T04:04:05.070Z,94.70
2022-12-06T04:05:04.764Z,76.90
2022-12-06T04:06:04.751Z,87.90
2022-12-06T04:07:04.750Z,90.20
2022-12-06T04:08:05.189Z,92.50
2022-12-06T04:09:04.755Z,93.60
2022-12-06T04:10:04.740Z,92.70
2022-12-06T04:11:04.718Z,86.10
2022-12-06T04:12:04.706Z,79.00
2022-12-06T04:13:04.813Z,78.10
2022-12-06T04:14:04.688Z,86.80
2022-12-06T04:15:04.713Z,79.30
2022-12-06T04:16:04.708Z,83.50
2022-12-06T04:17:04.695Z,87.30
2022-12-06T04:18:04.761Z,79.60
2022-12-06T04:19:04.663Z,80.20
2022-12-06T04:20:04.865Z,83.00
2022-12-06T04:21:04.645Z,83.40
2022-12-06T04:22:04.650Z,80.50
2022-12-06T04:23:04.885Z,74.10
2022-12-06T04:24:04.651Z,81.20
2022-12-06T04:25:04.645Z,75.10
2022-12-06T04:26:04.624Z,75.50
2022-12-06T04:27:04.699Z,84.40
2022-12-06T04:28:04.662Z,78.50
2022-12-06T04:29:04.603Z,76.70
2022-12-06T04:30:04.613Z,82.10
2022-12-06T04:31:04.610Z,76.60
2022-12-06T04:32:04.704Z,80.80
2022-12-06T04:33:04.612Z,79.40
2022-12-06T04:34:04.580Z,81.20
2022-12-06T04:35:04.601Z,73.10
2022-12-06T04:36:04.562Z,71.10
2022-12-06T04:37:04.564Z,70.40
2022-12-06T04:38:04.594Z,69.90
2022-12-06T04:39:04.549Z,68.20
2022-12-06T04:40:04.838Z,76.20
2022-12-06T04:41:04.529Z,68.20
2022-12-06T04:42:04.551Z,67.40
2022-12-06T04:43:04.549Z,59.90
2022-12-06T04:44:04.518Z,69.10
2022-12-06T04:45:04.544Z,67.50
2022-12-06T04:46:04.707Z,68.00
2022-12-06T04:47:04.549Z,65.00
2022-12-06T04:48:04.488Z,66.80
2022-12-06T04:49:04.499Z,70.00
2022-12-06T04:50:04.475Z,59.50
2022-12-06T04:51:04.466Z,61.80
2022-12-06T04:52:04.478Z,70.30
2022-12-06T04:53:04.480Z,67.00
2022-12-06T04:54:04.477Z,56.40
2022-12-06T04:55:04.499Z,59.50
2022-12-06T04:56:04.451Z,56.60
2022-12-06T04:57:04.445Z,64.30
2022-12-06T04:58:04.435Z,62.50
2022-12-06T04:59:04.435Z,54.00
2022-12-06T05:00:04.516Z,51.70
2022-12-06T05:01:04.958Z,60.10
2022-12-06T05:02:04.415Z,60.80
2022-12-06T05:03:04.394Z,62.00
2022-12-06T05:04:04.416Z,51.90
2022-12-06T05:05:04.391Z,52.40
2022-12-06T05:06:04.383Z,52.30
2022-12-06T05:07:04.373Z,51.50
2022-12-06T05:08:04.424Z,60.90
2022-12-06T05:09:04.845Z,51.20
2022-12-06T05:10:04.354Z,53.20
2022-12-06T05:11:05.202Z,54.00
2022-12-06T05:12:05.225Z,56.10
2022-12-06T05:13:04.331Z,51.00
2022-12-06T05:14:04.421Z,52.40
2022-12-06T05:15:04.331Z,50.00
2022-12-06T05:16:04.369Z,51.70
2022-12-06T05:17:04.314Z,49.40
2022-12-06T05:18:04.480Z,49.30
2022-12-06T05:19:05.330Z,43.20
2022-12-06T05:20:05.452Z,46.60
2022-12-06T05:21:04.288Z,48.10
2022-12-06T05:22:04.281Z,46.00
2022-12-06T05:23:04.287Z,49.30
2022-12-06T05:24:04.267Z,48.80
2022-12-06T05:25:04.396Z,46.80
2022-12-06T05:26:04.259Z,47.80
2022-12-06T05:27:04.247Z,54.70
2022-12-06T05:28:04.253Z,51.20
2022-12-06T05:29:04.266Z,48.30
2022-12-06T05:30:04.247Z,50.70
2022-12-06T05:31:04.800Z,48.30
2022-12-06T05:32:04.295Z,55.80
2022-12-06T05:33:04.234Z,54.60
2022-12-06T05:34:04.205Z,48.00
2022-12-06T05:35:04.255Z,53.60
2022-12-06T05:36:04.192Z,54.90
2022-12-06T05:37:04.191Z,57.50
2022-12-06T05:38:04.174Z,52.40
2022-12-06T05:39:04.189Z,59.90
2022-12-06T05:40:04.449Z,60.90
2022-12-06T05:41:04.161Z,57.40
2022-12-06T05:42:04.212Z,64.60
2022-12-06T05:43:04.461Z,59.60
2022-12-06T05:44:04.370Z,57.20
2022-12-06T05:45:04.282Z,64.90
2022-12-06T05:46:04.206Z,63.30
2022-12-06T05:47:04.712Z,67.50
2022-12-06T05:48:04.112Z,61.60
2022-12-06T05:49:04.181Z,64.40
2022-12-06T05:50:04.412Z,73.10
2022-12-06T05:51:04.476Z,65.50
2022-12-06T05:52:04.939Z,64.30
2022-12-06T05:53:04.508Z,60.40
2022-12-06T05:54:04.327Z,77.80
2022-12-06T05:55:04.108Z,67.80
2022-12-06T05:56:05.120Z,70.00
2022-12-06T05:57:04.938Z,76.70
2022-12-06T05:58:04.327Z,76.60
2022-12-06T05:59:05.067Z,71.50
2022-12-06T06:00:04.976Z,82.50
2022-12-06T06:01:04.167Z,70.70
2022-12-06T06:02:04.625Z,91.90
2022-12-06T06:03:04.486Z,80.70
2022-12-06T06:04:04.025Z,87.30
2022-12-06T06:05:04.033Z,83.80
2022-12-06T06:06:04.025Z,98.20
2022-12-06T06:07:04.043Z,86.30
2022-12-06T06:08:04.069Z,99.00
2022-12-06T06:09:04.011Z,86.30
2022-12-06T06:10:04.002Z,87.30
2022-12-06T06:11:04.044Z,115.60
2022-12-06T06:12:08.139Z,102.70
2022-12-06T06:13:04.020Z,92.80
2022-12-06T06:14:04.231Z,101.60
2022-12-06T06:15:04.051Z,95.80
2022-12-06T06:16:04.038Z,106.70
2022-12-06T06:17:04.131Z,104.50
2022-12-06T06:18:04.053Z,102.10
2022-12-06T06:19:04.277Z,95.20
2022-12-06T06:20:04.581Z,102.40
2022-12-06T06:21:04.068Z,92.60
2022-12-06T06:22:03.989Z,100.70
2022-12-06T06:23:03.918Z,113.60
2022-12-06T06:24:03.949Z,104.60
2022-12-06T06:25:04.298Z,100.10
2022-12-06T06:26:04.228Z,92.00
2022-12-06T06:27:04.317Z,96.50
2022-12-06T06:28:03.908Z,110.00
2022-12-06T06:29:04.118Z,117.60
2022-12-06T06:30:05.318Z,117.70
2022-12-06T06:31:03.930Z,101.30
2022-12-06T06:33:30.711Z,98.40
2022-12-06T06:34:29.911Z,124.60
2022-12-06T06:35:30.775Z,127.50
2022-12-06T06:36:29.819Z,125.90
2022-12-06T06:37:30.298Z,139.40
2022-12-06T06:38:30.740Z,116.40
2022-12-06T06:39:30.506Z,125.40
2022-12-06T06:40:29.849Z,136.10
2022-12-06T06:41:29.896Z,134.10
2022-12-06T06:42:29.856Z,142.80
2022-12-06T06:43:29.755Z,149.10
2022-12-06T06:44:30.277Z,145.20
2022-12-06T06:45:30.536Z,138.80
2022-12-06T06:46:30.369Z,137.10
2022-12-06T06:47:30.646Z,147.40
2022-12-06T06:48:29.744Z,160.80
2022-12-06T06:49:29.745Z,124.50
2022-12-06T06:50:30.613Z,131.40
2022-12-06T06:51:30.513Z,156.60
2022-12-06T06:52:30.673Z,199.80
2022-12-06T06:53:30.584Z,178.80
2022-12-06T06:54:29.732Z,159.30
2022-12-06T06:55:29.773Z,187.30
2022-12-06T06:56:30.582Z,155.00
2022-12-06T06:57:30.456Z,173.30
2022-12-06T06:58:30.615Z,134.90
2022-12-06T06:59:31.112Z,151.60
2022-12-06T07:00:29.652Z,185.90
2022-12-06T07:01:29.744Z,181.50
2022-12-06T07:02:29.837Z,182.00
2022-12-06T07:03:29.802Z,212.20
2022-12-06T07:04:30.549Z,174.00
2022-12-06T07:05:29.817Z,232.00
2022-12-06T07:06:29.820Z,193.90
2022-12-06T07:07:29.819Z,176.90
2022-12-06T07:08:29.589Z,199.20
2022-12-06T07:09:29.637Z,192.70
2022-12-06T07:10:30.487Z,192.30
2022-12-06T07:11:30.401Z,194.50
2022-12-06T07:12:30.547Z,204.70
2022-12-06T07:13:30.458Z,183.60
2022-12-06T07:14:29.591Z,241.80
2022-12-06T07:15:29.567Z,161.50
2022-12-06T07:16:29.610Z,182.60
2022-12-06T07:17:30.327Z,229.40
2022-12-06T07:18:30.987Z,199.50
2022-12-06T07:19:30.392Z,191.40
2022-12-06T07:20:29.544Z,178.60
2022-12-06T07:21:29.737Z,194.50
2022-12-06T07:22:29.567Z,232.60
2022-12-06T07:23:30.147Z,212.70
2022-12-06T07:24:29.483Z,165.60
2022-12-06T07:25:29.593Z,166.70
2022-12-06T07:26:30.490Z,180.70
2022-12-06T07:27:30.391Z,197.90
2022-12-06T07:28:29.482Z,175.90
2022-12-06T07:29:29.563Z,176.20
2022-12-06T07:30:30.385Z,185.40
2022-12-06T07:31:30.326Z,161.70
2022-12-06T07:32:29.535Z,154.10
2022-12-06T07:33:29.443Z,193.40
2022-12-06T07:34:30.231Z,142.20
2022-12-06T07:35:55.501Z,194.40
2022-12-06T07:36:29.462Z,169.80
2022-12-06T07:37:30.200Z,171.20
2022-12-06T07:38:30.362Z,184.10
2022-12-06T07:39:30.270Z,151.80
2022-12-06T07:40:56.064Z,212.10
2022-12-06T07:41:30.332Z,182.20
2022-12-06T07:42:30.268Z,186.80
2022-12-06T07:43:30.392Z,163.90
2022-12-06T07:44:29.389Z,171.20
2022-12-06T07:45:30.198Z,173.60
2022-12-06T07:46:30.396Z,176.80
2022-12-06T07:47:30.265Z,168.90
2022-12-06T07:48:29.368Z,194.20
2022-12-06T07:49:29.355Z,183.40
2022-12-06T07:50:30.016Z,156.10
2022-12-06T07:51:29.915Z,184.70
2022-12-06T07:52:29.351Z,179.30
2022-12-06T07:53:29.368Z,181.20
2022-12-06T07:54:30.112Z,167.80
2022-12-06T07:55:29.305Z,161.40
2022-12-06T07:56:30.217Z,172.00
2022-12-06T07:57:30.073Z,150.90
2022-12-06T07:58:30.235Z,172.90
2022-12-06T07:59:30.181Z,186.80
2022-12-06T08:00:29.289Z,177.30
2022-12-06T08:01:30.286Z,156.80
2022-12-06T08:02:30.106Z,160.90
2022-12-06T08:03:30.262Z,164.60
2022-12-06T08:04:29.331Z,178.00
2022-12-06T08:05:29.241Z,185.70
2022-12-06T08:06:29.251Z,197.30
2022-12-06T08:07:29.252Z,185.70
2022-12-06T08:08:30.119Z,178.00
2022-12-06T08:09:30.203Z,192.50
2022-12-06T08:10:29.222Z,185.80
2022-12-06T08:11:30.014Z,179.90
2022-12-06T08:12:35.780Z,181.10
2022-12-06T08:13:29.352Z,156.30
2022-12-06T08:14:30.013Z,177.70
2022-12-06T08:15:30.148Z,152.60
2022-12-06T08:16:30.131Z,164.30
2022-12-06T08:17:29.972Z,169.00
2022-12-06T08:18:29.158Z,186.90
2022-12-06T08:19:30.009Z,172.80
2022-12-06T08:20:29.148Z,171.60
2022-12-06T08:21:29.169Z,179.00
2022-12-06T08:22:29.149Z,170.10
2022-12-06T08:23:34.113Z,177.50
2022-12-06T08:24:30.045Z,155.10
2022-12-06T08:25:29.958Z,174.30
2022-12-06T08:26:30.105Z,165.20
2022-12-06T08:27:29.127Z,180.30
2022-12-06T08:28:29.117Z,167.20
2022-12-06T08:29:29.134Z,174.80
2022-12-06T08:30:29.167Z,151.20
2022-12-06T08:31:29.200Z,187.00
2022-12-06T08:32:30.034Z,174.00
2022-12-06T08:33:29.946Z,186.00
2022-12-06T08:34:29.843Z,171.60
2022-12-06T08:35:30.008Z,153.20
2022-12-06T08:36:29.622Z,187.20
2022-12-06T08:37:29.813Z,174.70
2022-12-06T08:38:29.111Z,162.80
2022-12-06T08:39:29.051Z,166.10
2022-12-06T08:40:29.051Z,196.90
2022-12-06T08:41:29.035Z,168.50
2022-12-06T08:42:29.850Z,200.30
2022-12-06T08:43:29.874Z,176.80
2022-12-06T08:44:29.912Z,201.60
2022-12-06T08:45:29.809Z,168.90
2022-12-06T08:46:29.124Z,194.60
2022-12-06T08:47:29.049Z,186.80
2022-12-06T08:48:28.995Z,174.10
2022-12-06T08:49:29.003Z,191.40
2022-12-06T08:50:29.851Z,204.90
2022-12-06T08:51:29.119Z,223.20
2022-12-06T08:52:29.044Z,193.40
2022-12-06T08:53:28.919Z,189.10
2022-12-06T08:54:29.719Z,189.40
2022-12-06T08:55:29.007Z,210.90
2022-12-06T08:56:28.936Z,219.20
2022-12-06T08:57:29.686Z,204.50
2022-12-06T08:58:29.848Z,252.50
2022-12-06T08:59:28.981Z,218.00
2022-12-06T09:00:29.906Z,239.40
2022-12-06T09:01:34.175Z,232.70
2022-12-06T09:02:29.005Z,233.60
2022-12-06T09:03:30.327Z,256.70
2022-12-06T09:04:29.826Z,257.60
2022-12-06T09:05:29.685Z,209.40
2022-12-06T09:06:29.866Z,242.00
2022-12-06T09:07:29.778Z,197.10
2022-12-06T09:08:28.916Z,222.20
2022-12-06T09:09:29.827Z,279.10
2022-12-06T09:10:29.044Z,195.20
2022-12-06T09:11:29.699Z,195.20
2022-12-06T09:12:28.822Z,238.90
2022-12-06T09:13:28.873Z,209.20
2022-12-06T09:14:28.881Z,230.20
2022-12-06T09:15:28.794Z,238.10
2022-12-06T09:16:28.936Z,318.80
2022-12-06T09:17:29.560Z,191.10
2022-12-06T09:18:29.721Z,292.20
2022-12-06T09:19:28.833Z,263.60
2022-12-06T09:20:28.890Z,241.60
2022-12-06T09:21:28.751Z,242.00
2022-12-06T09:22:28.740Z,231.90
2022-12-06T09:23:28.758Z,192.70
2022-12-06T09:24:29.650Z,228.30
2022-12-06T09:25:30.221Z,206.10
2022-12-06T09:26:28.748Z,161.60
2022-12-06T09:27:29.619Z,147.80
2022-12-06T09:28:28.769Z,212.00
2022-12-06T09:29:28.738Z,190.90
2022-12-06T09:30:29.587Z,220.30
2022-12-06T09:31:28.889Z,164.50
2022-12-06T09:32:28.705Z,205.20
2022-12-06T09:33:28.677Z,153.10
2022-12-06T09:34:29.496Z,160.80
2022-12-06T09:35:29.627Z,180.70
2022-12-06T09:36:29.531Z,183.30
2022-12-06T09:37:28.731Z,216.20
2022-12-06T09:38:28.677Z,199.50
2022-12-06T09:39:29.525Z,184.80
2022-12-06T09:40:29.529Z,183.20
2022-12-06T09:41:29.561Z,195.70
2022-12-06T09:42:28.731Z,219.60
2022-12-06T09:43:29.723Z,221.80
2022-12-06T09:44:29.524Z,225.60
2022-12-06T09:45:28.619Z,215.90
2022-12-06T09:46:29.692Z,213.10
2022-12-06T09:47:29.580Z,172.60
2022-12-06T09:48:29.611Z,220.40
2022-12-06T09:49:29.561Z,252.80
2022-12-06T09:50:29.461Z,194.40
2022-12-06T09:51:29.370Z,259.90
2022-12-06T09:52:28.842Z,217.00
2022-12-06T09:53:28.561Z,191.40
2022-12-06T09:54:28.561Z,201.10
2022-12-06T09:55:28.661Z,165.20
2022-12-06T09:56:29.400Z,178.10
2022-12-06T09:57:28.580Z,201.80
2022-12-06T09:58:28.519Z,202.40
2022-12-06T09:59:28.570Z,216.70
2022-12-06T10:00:29.567Z,190.60
2022-12-06T10:01:29.570Z,171.00
2022-12-06T10:02:28.607Z,180.90
2022-12-06T10:03:29.522Z,171.70
2022-12-06T10:04:28.567Z,192.30
2022-12-06T10:05:29.318Z,204.80
2022-12-06T10:06:28.497Z,199.50
2022-12-06T10:07:28.487Z,172.50
2022-12-06T10:08:29.410Z,182.10
2022-12-06T10:09:28.527Z,198.20
2022-12-06T10:10:28.513Z,176.90
2022-12-06T10:11:29.412Z,165.00
2022-12-06T10:12:28.457Z,160.90
2022-12-06T10:13:28.534Z,155.80
2022-12-06T10:14:29.236Z,147.80
2022-12-06T10:15:29.376Z,158.30
2022-12-06T10:16:28.462Z,152.30
2022-12-06T10:17:28.420Z,154.90
2022-12-06T10:18:28.403Z,150.00
2022-12-06T10:19:29.401Z,142.60
2022-12-06T10:20:29.406Z,146.50
2022-12-06T10:21:29.342Z,127.50
2022-12-06T10:22:28.447Z,136.30
2022-12-06T10:23:29.112Z,117.40
2022-12-06T10:24:29.272Z,119.70
2022-12-06T10:25:29.326Z,129.70
2022-12-06T10:26:28.399Z,128.00
2022-12-06T10:27:29.242Z,121.20
2022-12-06T10:28:29.140Z,119.70
2022-12-06T10:29:30.028Z,121.30
2022-12-06T10:30:29.209Z,119.40
2022-12-06T10:31:29.130Z,123.90
2022-12-06T10:32:29.321Z,132.40
2022-12-06T10:33:29.272Z,102.80
2022-12-06T10:34:28.352Z,112.10
2022-12-06T10:35:29.238Z,97.90
2022-12-06T10:36:29.138Z,117.40
2022-12-06T10:37:29.048Z,108.40
2022-12-06T10:38:29.209Z,119.00
2022-12-06T10:39:29.115Z,115.10
2022-12-06T10:40:28.414Z,132.00
2022-12-06T10:41:29.179Z,105.40
2022-12-06T10:42:29.090Z,106.70
2022-12-06T10:43:28.987Z,116.00
2022-12-06T10:44:29.143Z,116.10
2022-12-06T10:45:28.231Z,123.00
2022-12-06T10:46:29.239Z,127.30
2022-12-06T10:47:28.231Z,117.80
2022-12-06T10:48:28.347Z,130.20
2022-12-06T10:49:29.176Z,122.50
2022-12-06T10:50:28.235Z,114.30
2022-12-06T10:51:28.345Z,128.10
2022-12-06T10:52:29.145Z,110.60
2022-12-06T10:53:29.044Z,117.60
2022-12-06T10:54:29.114Z,121.00
2022-12-06T10:55:29.628Z,124.90
2022-12-06T10:56:29.125Z,120.80
2022-12-06T10:57:28.921Z,121.80
2022-12-06T10:58:28.163Z,119.10
2022-12-06T10:59:28.140Z,129.60
2022-12-06T11:00:28.891Z,126.50
2022-12-06T11:01:29.177Z,117.90
2022-12-06T11:02:29.021Z,120.10
2022-12-06T11:03:29.111Z,115.90
2022-12-06T11:04:29.051Z,122.40
2022-12-06T11:05:28.102Z,105.10
2022-12-06T11:06:29.061Z,112.10
2022-12-06T11:07:28.990Z,104.60
2022-12-06T11:08:28.107Z,120.60
2022-12-06T11:09:29.042Z,111.70
2022-12-06T11:10:28.071Z,109.60
2022-12-06T11:11:28.420Z,104.80
2022-12-06T11:12:31.524Z,120.90
2022-12-06T11:13:28.068Z,120.10
2022-12-06T11:14:28.048Z,110.70
2022-12-06T11:15:28.197Z,121.00
2022-12-06T11:16:28.767Z,113.00
2022-12-06T11:17:28.046Z,128.20
2022-12-06T11:18:28.047Z,106.50
2022-12-06T11:19:28.859Z,109.20
2022-12-06T11:20:27.988Z,112.00
2022-12-06T11:21:28.006Z,127.00
2022-12-06T11:22:27.974Z,112.20
2022-12-06T11:23:27.947Z,123.50
2022-12-06T11:24:27.983Z,113.90
2022-12-06T11:25:28.800Z,118.40
2022-12-06T11:26:28.905Z,135.90
2022-12-06T11:27:28.878Z,119.60
2022-12-06T11:28:28.764Z,115.70
2022-12-06T11:29:27.954Z,110.50
2022-12-06T11:30:28.843Z,134.50
2022-12-06T11:31:28.803Z,118.90
2022-12-06T11:32:28.890Z,123.40
2022-12-06T11:33:28.792Z,117.00
2022-12-06T11:34:27.922Z,123.80
2022-12-06T11:35:27.912Z,124.70
2022-12-06T11:36:28.760Z,123.30
2022-12-06T11:37:28.661Z,131.70
2022-12-06T11:38:28.832Z,127.90
2022-12-06T11:39:28.140Z,127.00
2022-12-06T11:40:28.633Z,122.50
2022-12-06T11:41:28.790Z,118.80
2022-12-06T11:42:27.854Z,117.50
2022-12-06T11:43:27.851Z,152.10
2022-12-06T11:44:27.909Z,127.20
2022-12-06T11:45:27.832Z,141.20
2022-12-06T11:46:28.836Z,135.80
2022-12-06T11:47:29.269Z,156.20
2022-12-06T11:48:28.632Z,152.40
2022-12-06T11:49:27.880Z,128.00
2022-12-06T11:50:27.789Z,131.10
2022-12-06T11:51:28.858Z,139.60
2022-12-06T11:52:27.837Z,121.50
2022-12-06T11:53:27.871Z,134.60
2022-12-06T11:54:28.008Z,143.50
2022-12-06T11:55:27.827Z,150.50
2022-12-06T11:56:28.638Z,116.10
2022-12-06T11:57:27.838Z,139.60
2022-12-06T11:58:27.738Z,140.00
2022-12-06T11:59:28.065Z,143.80
2022-12-06T12:00:29.104Z,138.40
2022-12-06T12:01:28.667Z,126.80
2022-12-06T12:02:28.615Z,138.90
2022-12-06T12:03:27.814Z,124.70
2022-12-06T12:04:27.745Z,118.10
2022-12-06T12:05:28.532Z,119.00
2022-12-06T12:06:27.686Z,119.50
2022-12-06T12:07:28.612Z,125.80
2022-12-06T12:08:32.601Z,117.00
2022-12-06T12:09:29.131Z,126.90
2022-12-06T12:10:27.698Z,113.90
2022-12-06T12:11:27.663Z,126.40
2022-12-06T12:12:28.631Z,108.10
2022-12-06T12:13:28.532Z,115.20
2022-12-06T12:14:27.633Z,120.50
2022-12-06T12:15:27.610Z,121.20
2022-12-06T12:16:28.540Z,114.80
2022-12-06T12:17:27.639Z,117.00
2022-12-06T12:18:27.609Z,112.70
2022-12-06T12:19:27.630Z,104.10
2022-12-06T12:20:28.380Z,123.90
2022-12-06T12:21:28.554Z,118.60
2022-12-06T12:22:27.667Z,136.60
2022-12-06T12:23:28.337Z,126.70
2022-12-06T12:24:29.029Z,122.50
2022-12-06T12:25:28.439Z,114.80
2022-12-06T12:26:27.575Z,124.00
2022-12-06T12:27:28.733Z,127.50
2022-12-06T12:28:27.548Z,126.30
2022-12-06T12:29:27.553Z,114.50
2022-12-06T12:30:28.440Z,119.80
2022-12-06T12:31:27.774Z,129.90
2022-12-06T12:33:53.519Z,113.30
2022-12-06T12:34:54.108Z,117.60
2022-12-06T12:35:53.485Z,125.90
2022-12-06T12:36:54.187Z,120.20
2022-12-06T12:37:53.474Z,145.00
2022-12-06T12:38:53.554Z,141.30
2022-12-06T12:39:53.448Z,117.90
2022-12-06T12:40:53.434Z,135.70
2022-12-06T12:41:53.594Z,133.50